createdAt,value
2019-06-20T00:01:55.359Z,94414.91
2019-06-20T00:04:24.339Z,94410.28
2019-06-20T00:06:53.243Z,94417.77
2019-06-20T00:09:22.174Z,94403.01
2019-06-20T00:11:51.081Z,94408.19
2019-06-20T00:14:19.992Z,94407.38
2019-06-20T00:16:49.247Z,94408.72
2019-06-20T00:19:18.147Z,94411.63
2019-06-20T00:21:47.116Z,94403.62
2019-06-20T00:24:16.064Z,94396.60
2019-06-20T00:26:44.967Z,94401.14
2019-06-20T00:29:13.880Z,94406.17
2019-06-20T00:31:42.867Z,94402.88
2019-06-20T00:34:11.774Z,94398.98
2019-06-20T00:36:40.749Z,94401.34
2019-06-20T00:39:10.420Z,94405.47
2019-06-20T00:41:39.674Z,94401.70
2019-06-20T00:44:08.561Z,94406.52
2019-06-20T00:46:37.460Z,94408.59
2019-06-20T00:49:06.428Z,94412.32
2019-06-20T00:51:35.456Z,94416.13
2019-06-20T00:54:04.408Z,94418.80
2019-06-20T00:56:33.319Z,94429.26
2019-06-20T00:59:02.202Z,94441.36
2019-06-20T01:01:31.149Z,94440.18
2019-06-20T01:04:00.114Z,94434.38
2019-06-20T01:06:29.038Z,94446.24
2019-06-20T01:08:57.925Z,94451.98
2019-06-20T01:11:26.893Z,94439.55
2019-06-20T01:13:55.775Z,94447.13
2019-06-20T01:16:25.014Z,94446.45
2019-06-20T01:18:53.954Z,94446.63
2019-06-20T01:21:23.257Z,94450.30
2019-06-20T01:23:52.215Z,94449.92
2019-06-20T01:26:21.172Z,94449.30
2019-06-20T01:28:50.062Z,94447.01
2019-06-20T01:31:19.023Z,94446.34
2019-06-20T01:33:48.198Z,94457.92
2019-06-20T01:36:17.179Z,94456.73
2019-06-20T01:38:46.098Z,94454.67
2019-06-20T01:41:15.357Z,94447.50
2019-06-20T01:43:50.556Z,94446.16
2019-06-20T01:46:16.531Z,94436.96
2019-06-20T01:48:45.477Z,94435.19
2019-06-20T01:51:14.436Z,94445.53
2019-06-20T01:53:43.391Z,94429.86
2019-06-20T01:56:12.353Z,94435.03
2019-06-20T01:58:41.316Z,94435.15
2019-06-20T02:01:10.301Z,94432.56
2019-06-20T02:03:39.278Z,94431.23
2019-06-20T02:06:08.234Z,94426.02
2019-06-20T02:08:37.134Z,94425.04
2019-06-20T02:11:06.383Z,94421.28
2019-06-20T02:13:35.350Z,94418.64
2019-06-20T02:16:04.427Z,94419.56
2019-06-20T02:18:33.571Z,94416.90
2019-06-20T02:21:02.546Z,94418.94
2019-06-20T02:23:31.532Z,94415.72
2019-06-20T02:26:00.489Z,94414.36
2019-06-20T02:28:29.456Z,94419.47
2019-06-20T02:30:58.451Z,94422.35
2019-06-20T02:33:27.701Z,94424.84
2019-06-20T02:35:56.608Z,94411.21
2019-06-20T02:38:25.569Z,94418.06
2019-06-20T02:40:54.831Z,94415.14
2019-06-20T02:43:23.858Z,94413.07
2019-06-20T02:45:53.096Z,94411.19
2019-06-20T02:48:22.049Z,94413.39
2019-06-20T02:50:51.005Z,94405.93
2019-06-20T02:53:19.966Z,94406.52
2019-06-20T02:55:49.193Z,94424.14
2019-06-20T02:58:18.067Z,94428.41
2019-06-20T03:00:54.995Z,94423.72
2019-06-20T03:03:23.991Z,94425.46
2019-06-20T03:05:53.201Z,94431.69
2019-06-20T03:08:22.174Z,94435.28
2019-06-20T03:10:51.132Z,94437.88
2019-06-20T03:13:20.473Z,94445.64
2019-06-20T03:15:50.169Z,94443.72
2019-06-20T03:18:19.429Z,94451.39
2019-06-20T03:20:48.467Z,94449.59
2019-06-20T03:23:17.454Z,94454.58
2019-06-20T03:25:46.361Z,94455.98
2019-06-20T03:28:15.270Z,94458.92
2019-06-20T03:30:44.134Z,94462.41
2019-06-20T03:33:13.557Z,94462.10
2019-06-20T03:35:42.538Z,94468.57
2019-06-20T03:38:11.536Z,94474.94
2019-06-20T03:40:40.497Z,94479.73
2019-06-20T03:43:09.489Z,94480.66
2019-06-20T03:45:38.456Z,94481.20
2019-06-20T03:48:07.438Z,94482.61
2019-06-20T03:50:36.413Z,94490.39
2019-06-20T03:53:05.654Z,94486.11
2019-06-20T03:55:34.731Z,94493.69
2019-06-20T03:58:03.985Z,94488.66
2019-06-20T04:00:34.929Z,94488.86
2019-06-20T04:03:05.417Z,94488.63
2019-06-20T04:05:35.046Z,94495.78
2019-06-20T04:08:04.279Z,94500.08
2019-06-20T04:10:33.419Z,94499.53
2019-06-20T04:13:02.410Z,94506.63
2019-06-20T04:15:31.424Z,94510.91
2019-06-20T04:18:00.425Z,94502.72
2019-06-20T04:20:29.387Z,94504.27
2019-06-20T04:22:58.387Z,94507.43
2019-06-20T04:25:27.645Z,94513.24
2019-06-20T04:27:56.646Z,94516.31
2019-06-20T04:30:25.930Z,94515.84
2019-06-20T04:32:54.928Z,94506.70
2019-06-20T04:35:23.936Z,94516.55
2019-06-20T04:37:52.949Z,94526.40
2019-06-20T04:40:22.167Z,94529.55
2019-06-20T04:42:51.093Z,94524.69
2019-06-20T04:45:35.033Z,94529.73
2019-06-20T04:47:58.337Z,94527.46
2019-06-20T04:50:27.312Z,94525.66
2019-06-20T04:52:56.308Z,94526.88
2019-06-20T04:55:25.282Z,94535.11
2019-06-20T04:57:54.301Z,94534.66
2019-06-20T05:00:23.295Z,94535.98
2019-06-20T05:02:52.221Z,94547.17
2019-06-20T05:05:21.227Z,94542.58
2019-06-20T05:07:50.118Z,94547.45
2019-06-20T05:10:19.031Z,94547.84
2019-06-20T05:12:48.031Z,94550.63
2019-06-20T05:15:17.189Z,94548.33
2019-06-20T05:17:46.143Z,94546.98
2019-06-20T05:20:15.134Z,94551.11
2019-06-20T05:22:44.167Z,94548.94
2019-06-20T05:25:13.350Z,94554.38
2019-06-20T05:27:42.280Z,94551.30
2019-06-20T05:30:11.523Z,94552.31
2019-06-20T05:32:40.435Z,94551.86
2019-06-20T05:35:09.619Z,94550.02
2019-06-20T05:37:38.575Z,94553.63
2019-06-20T05:40:07.660Z,94554.64
2019-06-20T05:42:36.593Z,94555.19
2019-06-20T05:45:06.363Z,94553.31
2019-06-20T05:47:35.358Z,94549.96
2019-06-20T05:50:04.869Z,94548.27
2019-06-20T05:52:33.845Z,94542.38
2019-06-20T05:55:02.836Z,94547.12
2019-06-20T05:57:32.032Z,94546.52
2019-06-20T06:00:01.012Z,94548.69
2019-06-20T06:02:29.930Z,94555.46
2019-06-20T06:04:58.916Z,94550.03
2019-06-20T06:07:28.144Z,94547.21
2019-06-20T06:09:57.121Z,94544.44
2019-06-20T06:12:26.003Z,94542.05
2019-06-20T06:14:55.004Z,94541.45
2019-06-20T06:17:24.033Z,94536.64
2019-06-20T06:19:53.057Z,94530.56
2019-06-20T06:22:21.943Z,94543.82
2019-06-20T06:24:50.962Z,94548.45
2019-06-20T06:27:20.105Z,94550.09
2019-06-20T06:29:49.066Z,94545.16
2019-06-20T06:32:20.173Z,94541.30
2019-06-20T06:34:48.879Z,94543.05
2019-06-20T06:37:17.910Z,94540.61
2019-06-20T06:39:47.199Z,94541.11
2019-06-20T06:42:16.214Z,94541.70
2019-06-20T06:44:45.213Z,94546.33
2019-06-20T06:47:14.391Z,94542.84
2019-06-20T06:49:43.480Z,94544.91
2019-06-20T06:52:12.496Z,94540.94
2019-06-20T06:54:41.512Z,94534.67
2019-06-20T06:57:10.787Z,94526.50
2019-06-20T06:59:40.042Z,94529.62
2019-06-20T07:02:08.942Z,94529.50
2019-06-20T07:04:37.959Z,94534.06
2019-06-20T07:07:07.247Z,94542.44
2019-06-20T07:09:36.148Z,94542.63
2019-06-20T07:12:05.328Z,94539.38
2019-06-20T07:14:34.316Z,94545.52
2019-06-20T07:17:03.404Z,94547.41
2019-06-20T07:19:32.401Z,94554.30
2019-06-20T07:22:01.461Z,94559.37
2019-06-20T07:24:30.471Z,94553.92
2019-06-20T07:26:59.521Z,94560.56
2019-06-20T07:29:28.516Z,94554.63
2019-06-20T07:31:57.792Z,94565.20
2019-06-20T07:34:26.795Z,94570.97
2019-06-20T07:36:55.699Z,94575.65
2019-06-20T07:39:24.678Z,94579.30
2019-06-20T07:41:53.709Z,94577.52
2019-06-20T07:44:22.985Z,94580.26
2019-06-20T07:46:52.124Z,94580.88
2019-06-20T07:49:21.149Z,94589.98
2019-06-20T07:51:50.290Z,94586.13
2019-06-20T07:54:19.312Z,94586.83
2019-06-20T07:56:48.292Z,94590.91
2019-06-20T07:59:17.325Z,94595.00
2019-06-20T08:01:46.317Z,94594.67
2019-06-20T08:04:15.469Z,94595.25
2019-06-20T08:06:44.555Z,94600.90
2019-06-20T08:09:13.594Z,94603.72
2019-06-20T08:11:42.614Z,94602.94
2019-06-20T08:14:11.816Z,94607.66
2019-06-20T08:16:40.879Z,94610.47
2019-06-20T08:19:09.992Z,94611.56
2019-06-20T08:21:39.084Z,94619.08
2019-06-20T08:24:08.158Z,94608.42
2019-06-20T08:26:37.502Z,94605.66
2019-06-20T08:29:18.661Z,94611.99
2019-06-20T08:31:37.328Z,94611.17
2019-06-20T08:34:06.597Z,94623.98
2019-06-20T08:36:35.631Z,94614.04
2019-06-20T08:39:08.819Z,94621.84
2019-06-20T08:41:37.802Z,94626.47
2019-06-20T08:44:07.045Z,94625.69
2019-06-20T08:46:36.444Z,94630.18
2019-06-20T08:49:05.863Z,94624.08
2019-06-20T08:51:34.980Z,94627.55
2019-06-20T08:54:05.379Z,94631.97
2019-06-20T08:56:34.704Z,94624.51
2019-06-20T08:59:04.877Z,94633.85
2019-06-20T09:01:34.087Z,94636.19
2019-06-20T09:06:32.486Z,94637.50
2019-06-20T09:09:02.436Z,94644.97
2019-06-20T09:11:31.714Z,94648.74
2019-06-20T09:14:01.506Z,94647.95
2019-06-20T09:16:30.537Z,94643.77
2019-06-20T09:19:00.485Z,94645.00
2019-06-20T09:21:29.594Z,94646.50
2019-06-20T09:23:59.926Z,94649.16
2019-06-20T09:26:29.121Z,94646.72
2019-06-20T09:28:59.349Z,94646.77
2019-06-20T09:31:28.632Z,94652.62
2019-06-20T09:34:01.759Z,94654.30
2019-06-20T09:36:28.485Z,94651.84
2019-06-20T09:38:58.187Z,94648.45
2019-06-20T09:41:28.523Z,94654.16
2019-06-20T09:43:58.552Z,94654.59
2019-06-20T09:46:27.555Z,94666.30
2019-06-20T09:48:56.613Z,94659.08
2019-06-20T09:51:25.587Z,94665.55
2019-06-20T09:53:56.279Z,94667.06
2019-06-20T09:56:25.317Z,94682.06
2019-06-20T09:58:55.331Z,94677.73
2019-06-20T10:01:24.309Z,94681.52
2019-06-20T10:03:54.669Z,94674.38
2019-06-20T10:06:23.680Z,94673.82
2019-06-20T10:08:52.692Z,94680.78
2019-06-20T10:11:21.684Z,94680.34
2019-06-20T10:13:52.167Z,94679.05
2019-06-20T10:16:21.158Z,94678.91
2019-06-20T10:18:50.184Z,94674.30
2019-06-20T10:21:19.224Z,94675.22
2019-06-20T10:23:48.216Z,94677.19
2019-06-20T10:26:17.230Z,94675.06
2019-06-20T10:28:47.567Z,94678.88
2019-06-20T10:31:17.083Z,94674.00
2019-06-20T10:33:46.884Z,94681.22
2019-06-20T10:36:15.976Z,94691.17
2019-06-20T10:38:46.436Z,94679.69
2019-06-20T10:41:15.497Z,94690.56
2019-06-20T10:43:45.714Z,94686.56
2019-06-20T10:46:15.276Z,94692.53
2019-06-20T10:48:44.446Z,94695.14
2019-06-20T10:51:33.075Z,94698.06
2019-06-20T10:54:02.537Z,94699.52
2019-06-20T10:56:31.538Z,94706.20
2019-06-20T10:59:00.619Z,94705.38
2019-06-20T11:01:29.901Z,94705.02
2019-06-20T11:03:59.209Z,94700.02
2019-06-20T11:06:28.111Z,94696.27
2019-06-20T11:08:57.128Z,94700.12
2019-06-20T11:11:26.124Z,94699.36
2019-06-20T11:13:55.106Z,94692.88
2019-06-20T11:16:24.115Z,94692.76
2019-06-20T11:18:53.098Z,94696.07
2019-06-20T11:21:22.106Z,94680.23
2019-06-20T11:23:51.130Z,94683.77
2019-06-20T11:26:20.228Z,94691.98
2019-06-20T11:28:49.126Z,94695.55
2019-06-20T11:31:18.124Z,94690.93
2019-06-20T11:33:50.243Z,94685.40
2019-06-20T11:36:18.931Z,94687.94
2019-06-20T11:38:49.181Z,94695.56
2019-06-20T11:41:18.105Z,94690.20
2019-06-20T11:43:47.377Z,94692.33
2019-06-20T11:46:16.367Z,94693.30
2019-06-20T11:48:45.419Z,94693.09
2019-06-20T11:51:14.645Z,94686.06
2019-06-20T11:53:43.677Z,94689.70
2019-06-20T11:56:12.714Z,94690.40
2019-06-20T11:58:41.742Z,94685.90
2019-06-20T12:01:10.957Z,94684.98
2019-06-20T12:03:40.751Z,94692.88
2019-06-20T12:06:09.683Z,94690.81
2019-06-20T12:08:39.637Z,94684.23
2019-06-20T12:11:09.609Z,94690.28
2019-06-20T12:13:40.423Z,94692.18
2019-06-20T12:16:09.772Z,94695.42
2019-06-20T12:18:40.215Z,94688.59
2019-06-20T12:21:09.621Z,94691.96
2019-06-20T12:23:39.525Z,94693.12
2019-06-20T12:26:09.616Z,94693.59
2019-06-20T12:28:39.648Z,94693.19
2019-06-20T12:31:19.522Z,94687.41
2019-06-20T12:33:42.336Z,94684.97
2019-06-20T12:36:11.641Z,94687.17
2019-06-20T12:38:41.121Z,94689.63
2019-06-20T12:41:12.814Z,94690.06
2019-06-20T12:43:41.911Z,94690.34
2019-06-20T12:46:11.350Z,94692.88
2019-06-20T12:48:41.281Z,94688.61
2019-06-20T12:51:10.615Z,94678.70
2019-06-20T12:53:40.504Z,94675.23
2019-06-20T12:56:10.487Z,94679.06
2019-06-20T12:58:40.751Z,94681.15
2019-06-20T13:01:10.533Z,94672.52
2019-06-20T13:03:50.541Z,94671.68
2019-06-20T13:06:19.666Z,94673.58
2019-06-20T13:08:56.550Z,94676.38
2019-06-20T13:11:25.654Z,94669.75
2019-06-20T13:13:54.704Z,94665.08
2019-06-20T13:16:23.783Z,94667.32
2019-06-20T13:18:53.747Z,94670.30
2019-06-20T13:21:22.652Z,94664.52
2019-06-20T13:23:51.643Z,94664.16
2019-06-20T13:26:20.684Z,94667.48
2019-06-20T13:29:03.255Z,94664.47
2019-06-20T13:31:21.106Z,94663.78
2019-06-20T13:33:50.085Z,94666.19
2019-06-20T13:36:19.015Z,94670.38
2019-06-20T13:38:48.812Z,94665.77
2019-06-20T13:41:17.848Z,94669.30
2019-06-20T13:43:46.851Z,94668.55
2019-06-20T13:46:15.887Z,94666.03
2019-06-20T13:48:45.798Z,94666.53
2019-06-20T13:51:14.873Z,94669.48
2019-06-20T13:53:44.254Z,94665.99
2019-06-20T13:56:13.196Z,94659.00
2019-06-20T13:58:42.345Z,94664.34
2019-06-20T14:01:11.604Z,94654.30
2019-06-20T14:03:43.431Z,94659.08
2019-06-20T14:06:11.313Z,94652.05
2019-06-20T14:08:42.348Z,94651.41
2019-06-20T14:11:10.954Z,94645.63
2019-06-20T14:13:41.129Z,94650.11
2019-06-20T14:16:10.716Z,94648.14
2019-06-20T14:18:39.679Z,94645.48
2019-06-20T14:21:08.793Z,94637.69
2019-06-20T14:23:37.820Z,94639.81
2019-06-20T14:26:06.808Z,94628.09
2019-06-20T14:28:35.830Z,94624.68
2019-06-20T14:31:04.838Z,94616.89
2019-06-20T14:33:34.282Z,94623.61
2019-06-20T14:36:03.243Z,94626.78
2019-06-20T14:38:32.239Z,94623.56
2019-06-20T14:41:01.367Z,94624.14
2019-06-20T14:43:30.427Z,94627.53
2019-06-20T14:45:59.719Z,94630.24
2019-06-20T14:48:29.933Z,94618.97
2019-06-20T14:50:58.919Z,94631.36
2019-06-20T14:53:28.048Z,94637.75
2019-06-20T14:55:56.968Z,94645.11
2019-06-20T14:58:26.015Z,94644.63
2019-06-20T15:00:55.116Z,94642.80
2019-06-20T15:03:24.241Z,94642.73
2019-06-20T15:05:54.685Z,94641.82
2019-06-20T15:08:23.882Z,94651.08
2019-06-20T15:10:54.022Z,94664.44
2019-06-20T15:13:23.337Z,94669.14
2019-06-20T15:15:53.408Z,94679.63
2019-06-20T15:18:27.245Z,94678.75
2019-06-20T15:20:59.299Z,94673.28
2019-06-20T15:23:27.429Z,94681.61
2019-06-20T15:25:56.570Z,94696.00
2019-06-20T15:28:26.220Z,94709.88
2019-06-20T15:30:55.238Z,94728.89
2019-06-20T15:33:24.352Z,94718.40
2019-06-20T15:35:55.186Z,94716.11
2019-06-20T15:38:24.515Z,94714.47
2019-06-20T15:40:53.614Z,94718.97
2019-06-20T15:43:22.682Z,94708.00
2019-06-20T15:45:52.093Z,94704.97
2019-06-20T15:48:22.049Z,94708.06
2019-06-20T15:50:51.056Z,94717.91
2019-06-20T15:53:20.233Z,94716.98
2019-06-20T15:56:03.396Z,94718.20
2019-06-20T15:58:28.372Z,94698.89
2019-06-20T16:00:58.076Z,94695.72
2019-06-20T16:03:30.221Z,94700.30
2019-06-20T16:05:59.659Z,94698.25
2019-06-20T16:08:28.839Z,94691.92
2019-06-20T16:10:58.416Z,94692.02
2019-06-20T16:13:27.713Z,94697.13
2019-06-20T16:15:56.853Z,94701.17
2019-06-20T16:18:25.951Z,94703.39
2019-06-20T16:20:55.072Z,94704.42
2019-06-20T16:23:24.152Z,94705.87
2019-06-20T16:25:53.143Z,94710.44
2019-06-20T16:28:22.199Z,94712.64
2019-06-20T16:30:51.335Z,94707.65
2019-06-20T16:33:25.094Z,94715.42
2019-06-20T16:35:51.009Z,94707.53
2019-06-20T16:38:20.762Z,94701.44
2019-06-20T16:40:49.848Z,94710.91
2019-06-20T16:43:18.807Z,94714.76
2019-06-20T16:45:48.094Z,94726.20
2019-06-20T16:48:17.352Z,94726.75
2019-06-20T16:50:46.305Z,94708.41
2019-06-20T16:53:15.263Z,94711.83
2019-06-20T16:55:44.466Z,94721.23
2019-06-20T16:58:13.386Z,94724.86
2019-06-20T17:00:42.705Z,94727.20
2019-06-20T17:03:12.036Z,94727.32
2019-06-20T17:05:41.007Z,94731.50
2019-06-20T17:08:10.038Z,94733.38
2019-06-20T17:10:39.119Z,94740.73
2019-06-20T17:13:08.853Z,94735.41
2019-06-20T17:15:37.849Z,94743.26
2019-06-20T17:18:06.916Z,94745.11
2019-06-20T17:20:35.836Z,94742.30
2019-06-20T17:23:04.998Z,94747.71
2019-06-20T17:25:34.062Z,94746.74
2019-06-20T17:28:04.042Z,94748.70
2019-06-20T17:30:33.076Z,94756.63
2019-06-20T17:33:03.245Z,94753.47
2019-06-20T17:35:32.500Z,94740.66
2019-06-20T17:38:01.594Z,94752.02
2019-06-20T17:40:30.740Z,94751.48
2019-06-20T17:42:59.769Z,94754.91
2019-06-20T17:45:29.735Z,94756.65
2019-06-20T17:48:00.794Z,94759.63
2019-06-20T17:50:29.944Z,94760.81
2019-06-20T17:52:59.262Z,94757.85
2019-06-20T17:55:28.214Z,94753.88
2019-06-20T17:57:57.302Z,94763.20
2019-06-20T18:00:28.155Z,94757.06
2019-06-20T18:02:57.195Z,94756.03
2019-06-20T18:05:26.241Z,94755.31
2019-06-20T18:07:55.364Z,94759.51
2019-06-20T18:10:24.459Z,94762.30
2019-06-20T18:12:53.763Z,94767.00
2019-06-20T18:15:24.022Z,94764.73
2019-06-20T18:17:53.003Z,94767.39
2019-06-20T18:20:22.644Z,94772.27
2019-06-20T18:22:51.944Z,94783.17
2019-06-20T18:25:20.964Z,94783.84
2019-06-20T18:27:49.850Z,94786.84
2019-06-20T18:30:19.193Z,94788.94
2019-06-20T18:32:48.133Z,94790.67
2019-06-20T18:35:17.013Z,94799.73
2019-06-20T18:37:46.266Z,94803.36
2019-06-20T18:40:15.725Z,94804.59
2019-06-20T18:42:44.824Z,94810.71
2019-06-20T18:45:13.871Z,94806.91
2019-06-20T18:47:43.125Z,94808.70
2019-06-20T18:50:13.585Z,94810.34
2019-06-20T18:52:52.117Z,94819.50
2019-06-20T18:55:13.357Z,94822.61
2019-06-20T18:57:42.360Z,94822.88
2019-06-20T19:00:14.397Z,94824.00
2019-06-20T19:02:43.377Z,94834.27
2019-06-20T19:05:12.637Z,94833.03
2019-06-20T19:07:41.866Z,94835.77
2019-06-20T19:10:11.256Z,94842.59
2019-06-20T19:12:40.243Z,94853.23
2019-06-20T19:15:10.078Z,94859.16
2019-06-20T19:17:39.057Z,94859.23
2019-06-20T19:20:08.233Z,94859.94
2019-06-20T19:22:37.169Z,94860.71
2019-06-20T19:25:06.350Z,94849.86
2019-06-20T19:27:45.599Z,94851.16
2019-06-20T19:30:06.458Z,94866.41
2019-06-20T19:32:35.456Z,94864.13
2019-06-20T19:35:04.717Z,94872.93
2019-06-20T19:37:33.713Z,94868.55
2019-06-20T19:40:02.831Z,94867.78
2019-06-20T19:42:31.756Z,94872.27
2019-06-20T19:45:00.769Z,94870.17
2019-06-20T19:47:29.733Z,94878.79
2019-06-20T19:49:58.735Z,94871.40
2019-06-20T19:52:27.641Z,94882.81
2019-06-20T19:54:56.627Z,94878.95
2019-06-20T19:57:25.531Z,94879.95
2019-06-20T19:59:54.519Z,94885.20
2019-06-20T20:02:23.483Z,94883.11
2019-06-20T20:04:52.831Z,94882.09
2019-06-20T20:07:22.093Z,94884.94
2019-06-20T20:09:50.989Z,94885.42
2019-06-20T20:12:19.992Z,94884.88
2019-06-20T20:14:48.998Z,94886.28
2019-06-20T20:17:17.977Z,94883.59
2019-06-20T20:19:46.985Z,94891.31
2019-06-20T20:22:15.954Z,94892.05
2019-06-20T20:24:45.137Z,94897.03
2019-06-20T20:27:14.046Z,94896.27
2019-06-20T20:29:43.004Z,94894.03
2019-06-20T20:32:12.216Z,94900.36
2019-06-20T20:34:41.155Z,94902.17
2019-06-20T20:37:10.158Z,94893.56
2019-06-20T20:39:39.069Z,94897.01
2019-06-20T20:42:08.346Z,94904.16
2019-06-20T20:44:37.253Z,94914.98
2019-06-20T20:47:06.347Z,94904.39
2019-06-20T20:49:35.307Z,94910.69
2019-06-20T20:52:04.313Z,94913.09
2019-06-20T20:54:33.283Z,94905.62
2019-06-20T20:57:02.241Z,94911.77
2019-06-20T20:59:31.215Z,94915.16
2019-06-20T21:02:00.106Z,94918.88
2019-06-20T21:04:29.043Z,94920.15
2019-06-20T21:06:57.940Z,94923.37
2019-06-20T21:09:26.880Z,94920.45
2019-06-20T21:11:55.774Z,94921.88
2019-06-20T21:14:24.827Z,94929.33
2019-06-20T21:16:53.746Z,94929.05
2019-06-20T21:19:22.714Z,94934.52
2019-06-20T21:21:51.685Z,94930.97
2019-06-20T21:24:20.974Z,94934.82
2019-06-20T21:26:50.313Z,94934.11
2019-06-20T21:29:19.364Z,94938.74
2019-06-20T21:31:48.600Z,94940.62
2019-06-20T21:34:17.566Z,94939.27
2019-06-20T21:36:46.826Z,94942.70
2019-06-20T21:39:15.873Z,94937.20
2019-06-20T21:41:44.869Z,94934.26
2019-06-20T21:44:13.832Z,94940.05
2019-06-20T21:46:42.758Z,94938.75
2019-06-20T21:49:11.733Z,94950.14
2019-06-20T21:51:44.517Z,94946.92
2019-06-20T21:54:11.922Z,94952.61
2019-06-20T21:56:41.173Z,94952.77
2019-06-20T21:59:10.153Z,94953.13
2019-06-20T22:01:39.684Z,94958.56
2019-06-20T22:04:08.806Z,94958.47
2019-06-20T22:06:37.789Z,94954.16
2019-06-20T22:09:08.247Z,94946.14
2019-06-20T22:11:37.191Z,94948.93
2019-06-20T22:14:06.520Z,94945.56
2019-06-20T22:16:35.490Z,94949.50
2019-06-20T22:19:04.571Z,94948.28
2019-06-20T22:22:09.235Z,94950.77
2019-06-20T22:24:38.203Z,94951.91
2019-06-20T22:27:07.206Z,94960.27
2019-06-20T22:29:36.173Z,94961.47
2019-06-20T22:32:05.159Z,94968.75
2019-06-20T22:34:34.185Z,94968.20
2019-06-20T22:37:03.285Z,94969.75
2019-06-20T22:39:32.220Z,94968.92
2019-06-20T22:42:01.119Z,94968.82
2019-06-20T22:44:30.105Z,94974.28
2019-06-20T22:46:59.048Z,94978.78
2019-06-20T22:49:28.005Z,94979.81
2019-06-20T22:51:56.999Z,94979.35
2019-06-20T22:54:25.999Z,94976.80
2019-06-20T22:56:54.878Z,94977.40
2019-06-20T22:59:23.886Z,94979.86
2019-06-20T23:01:52.838Z,94979.70
2019-06-20T23:04:21.831Z,94983.66
2019-06-20T23:06:56.468Z,94985.52
2019-06-20T23:09:21.432Z,94984.38
2019-06-20T23:11:50.377Z,94986.73
2019-06-20T23:14:19.349Z,94990.55
2019-06-20T23:16:49.244Z,94990.80
2019-06-20T23:19:18.201Z,94985.61
2019-06-20T23:21:47.449Z,94992.51
2019-06-20T23:24:16.328Z,94988.91
2019-06-20T23:26:45.339Z,94998.47
2019-06-20T23:29:23.573Z,94998.08
2019-06-20T23:31:53.223Z,95000.94
2019-06-20T23:34:22.299Z,95001.33
2019-06-20T23:36:51.293Z,95001.22
2019-06-20T23:39:20.220Z,95003.00
2019-06-20T23:41:49.181Z,95007.94
2019-06-20T23:44:18.165Z,95011.70
2019-06-20T23:46:47.130Z,95017.52
2019-06-20T23:49:16.095Z,95017.20
2019-06-20T23:51:50.497Z,95025.16
2019-06-20T23:54:19.473Z,95018.02
2019-06-20T23:56:48.428Z,95018.98
2019-06-20T23:59:17.705Z,95022.66
